Details From PAJN - Juneau Intl
To PAGY - Skagway
Flight Number -
Tags Generated
Created
Modified
Stats Distance 70 nm / 129 km
Max Altitude 0 ft / 0 m
Waypoints 2
Social Downloads 8
Likes 0
Share VATSIM

Download

Looking for another format? Having issues loading an existing format? Contact us
Advertisement - Login to hide

Notes

Generated

Route

PAJN PAGY

ID Type Via Altitude Latitude Longitude Leg Dist Tot Dist Heading (true) Name
O PAJN APT - 0 ft / 0 m 58.35793˚ -134.59756˚ - 0 nm - -
O PAGY APT - 0 ft / 0 m 59.45657˚ -135.32229˚ 69 nm 69 nm 341° / 341° SKAGWAY

Altitude Profile

Advertisement - Login to hide

PAJN

Details ICAO PAJN (JNU)
Name Juneau Intl
Region USA (Alaska)
Timezone America/Juneau (UTC-8.0)
Stats Elevation 21 ft / 6 m (AMSL)
Location 58.354964° -134.576278°
Runways 1
Magnetic Variation 19.019° E

METAR

PAJN 250253Z 11010KT 10SM SCT036 BKN050 BKN080 OVC150 10/06 A2996

Decode

TAF

PAJN 242334Z 2500/2524 12010KT P6SM VCSH SCT040 BKN060 BKN100 TEMPO 2500/2504 12010G20KT -SHRA FEW015 BKN030 OVC040 FM251500 11014G20KT P6SM -RA OVC040

Decode

Departure Runways

ID Width Length Bearing (true) Bearing (mag) Surface Threshold Offset Overrun Length
08 150 ft / 46 m 8,430 ft / 2,570 m 104.87° 85.85° Asphalt 0 ft / 0 m 450 ft / 137 m
26 150 ft / 46 m 8,430 ft / 2,570 m 284.90° 265.88° Asphalt 0 ft / 0 m 225 ft / 69 m

PAGY

Details ICAO PAGY (SGY)
Name SKAGWAY
Region USA (Alaska)
Timezone America/Juneau (UTC-8.0)
Stats Elevation 44 ft / 13 m (AMSL)
Location 59.460062° -135.315661°
Runways 1
Magnetic Variation 19.211° E

METAR

PAGY 250253Z AUTO 20011KT 10SM SCT060 OVC080 11/04 A2994 RMK AO2 SLP137 T01110039 51006 TSNO

Decode

TAF

PAGY 242334Z 2500/2524 20015G25KT P6SM VCSH BKN060 FM250600 19008KT P6SM VCSH OVC050 FM251600 19014G21KT P6SM -RA OVC035 AMD LTD TO CLD VIS AND WIND

Decode

Destination Runways

ID Width Length Bearing (true) Bearing (mag) Surface Threshold Offset Overrun Length
02 75 ft / 23 m 3,542 ft / 1,080 m 43.94° 24.73° Asphalt 0 ft / 0 m 299 ft / 91 m
20 75 ft / 23 m 3,542 ft / 1,080 m 223.95° 204.74° Asphalt 0 ft / 0 m 299 ft / 91 m

Popular Alternatives